Time;durP1;ratioP1;P1;durP2;ratioP2;P2;SDS_P1;SDS_P2;PMS_P1;PMS_P2;Temp;Humidity;BMP_temperature;BMP_pressure;BME280_temperature;BME280_humidity;BME280_pressure;Samples;Min_cycle;Max_cycle;Signal;HPM_P1;HPM_P2
2023/10/22 00:01:27;;;;;;;2.28;1.30;;;;;;;;;;4974956;28;20123;-28
2023/10/22 00:03:54;;;;;;;1.73;1.17;;;19.00;81.50;;;;;;4974803;28;20512;-29
2023/10/22 00:06:22;;;;;;;3.70;1.50;;;;;;;;;;4973445;28;20059;-28
2023/10/22 00:08:50;;;;;;;3.08;1.27;;;18.30;80.90;;;;;;4982831;28;20122;-29
2023/10/22 00:11:17;;;;;;;2.65;1.23;;;;;;;;;;4994343;28;20504;-28
2023/10/22 00:13:44;;;;;;;1.95;1.17;;;19.00;81.30;;;;;;4993788;28;20047;-30
2023/10/22 00:16:11;;;;;;;2.60;1.30;;;20.20;81.80;;;;;;4994125;28;20050;-30
2023/10/22 00:18:38;;;;;;;2.35;1.20;;;19.70;69.00;;;;;;4993676;28;20116;-30
2023/10/22 00:21:07;;;;;;;3.97;1.58;;;19.80;82.00;;;;;;4994016;28;20089;-30
2023/10/22 00:23:34;;;;;;;2.20;1.40;;;19.00;62.30;;;;;;4993972;28;20074;-29
2023/10/22 00:26:02;;;;;;;1.60;1.10;;;18.40;81.30;;;;;;4993744;28;20507;-30
2023/10/22 00:28:29;;;;;;;1.98;1.20;;;18.60;81.30;;;;;;4993482;28;20042;-30
2023/10/22 00:30:56;;;;;;;2.45;1.30;;;18.80;68.40;;;;;;4994012;28;20046;-30
2023/10/22 00:33:23;;;;;;;2.65;1.15;;;19.10;81.30;;;;;;4993893;28;20046;-30
2023/10/22 00:35:56;;;;;;;1.52;1.00;;;18.30;80.90;;;;;;4993814;28;20054;-30
2023/10/22 00:38:22;;;;;;;1.60;1.20;;;18.90;74.30;;;;;;4954726;28;20058;-30
2023/10/22 00:40:49;;;;;;;2.03;1.25;;;18.20;81.20;;;;;;4954884;28;20492;-26
2023/10/22 00:43:17;;;;;;;2.20;1.20;;;19.00;62.30;;;;;;4957395;28;20089;-28
2023/10/22 00:45:44;;;;;;;2.17;1.20;;;;;;;;;;4974006;28;20587;-28
2023/10/22 00:48:11;;;;;;;1.92;1.13;;;19.20;81.70;;;;;;4974039;28;20133;-26
2023/10/22 00:50:39;;;;;;;2.42;1.20;;;19.30;81.40;;;;;;4973819;28;20112;-26
2023/10/22 00:53:06;;;;;;;2.13;1.00;;;18.60;81.10;;;;;;4974011;28;20558;-26
2023/10/22 00:55:34;;;;;;;2.17;1.30;;;18.50;63.60;;;;;;4973920;28;20074;-27
2023/10/22 00:58:02;;;;;;;1.90;1.10;;;;;;;;;;4973183;28;20572;-28
2023/10/22 01:00:31;;;;;;;2.00;1.20;;;19.10;81.30;;;;;;4973847;28;20057;-27
2023/10/22 01:02:57;;;;;;;2.20;1.10;;;18.50;81.00;;;;;;4973805;28;20106;-26
2023/10/22 01:05:24;;;;;;;2.67;1.23;;;;;;;;;;4973793;28;20047;-26
2023/10/22 01:07:51;;;;;;;2.42;1.30;;;18.70;65.80;;;;;;4973937;28;20451;-27
2023/10/22 01:10:18;;;;;;;1.75;1.13;;;19.30;81.80;;;;;;4993091;28;20132;-26
2023/10/22 01:12:45;;;;;;;2.20;1.10;;;;;;;;;;4992954;28;20058;-30
2023/10/22 01:15:12;;;;;;;2.78;0.98;;;18.90;81.50;;;;;;4993129;28;20086;-26
2023/10/22 01:17:40;;;;;;;1.90;1.20;;;18.90;81.30;;;;;;4992882;28;20081;-26
2023/10/22 01:20:09;;;;;;;3.13;1.08;;;18.80;62.30;;;;;;4992823;28;20656;-26
2023/10/22 01:22:35;;;;;;;1.98;1.08;;;18.70;71.50;;;;;;4992694;28;20484;-26
2023/10/22 01:25:04;;;;;;;1.75;0.95;;;19.80;81.80;;;;;;4992772;28;20050;-26
2023/10/22 01:27:33;;;;;;;1.98;1.20;;;19.00;81.30;;;;;;4992753;28;20046;-26
2023/10/22 01:30:00;;;;;;;1.63;0.98;;;;;;;;;;4992604;28;20082;-28
2023/10/22 01:32:30;;;;;;;2.95;1.02;;;18.90;62.30;;;;;;4992706;28;20495;-26
2023/10/22 01:34:57;;;;;;;2.20;1.10;;;18.60;81.10;;;;;;4992696;28;20054;-26
2023/10/22 01:37:24;;;;;;;1.38;1.00;;;;;;;;;;4979738;28;21228;-29
2023/10/22 01:39:51;;;;;;;1.20;0.93;;;18.40;81.10;;;;;;4972952;28;20074;-26
2023/10/22 01:42:19;;;;;;;1.00;0.90;;;18.80;62.30;;;;;;4973070;28;20054;-29
2023/10/22 01:44:46;;;;;;;1.58;0.90;;;;;;;;;;4973060;28;20051;-29
2023/10/22 01:47:13;;;;;;;2.17;1.10;;;18.50;81.20;;;;;;4973197;28;20086;-26
2023/10/22 01:49:40;;;;;;;2.38;0.95;;;18.20;81.00;;;;;;4972817;28;20710;-26
2023/10/22 01:52:06;;;;;;;2.17;1.08;;;18.70;76.60;;;;;;4973105;28;20485;-26
2023/10/22 01:54:34;;;;;;;2.72;1.10;;;18.30;81.40;;;;;;4972983;28;20503;-27
2023/10/22 01:57:01;;;;;;;1.58;1.00;;;19.50;81.70;;;;;;4972728;28;20049;-27
2023/10/22 01:59:29;;;;;;;2.55;0.90;;;18.40;81.50;;;;;;4972563;28;20074;-26
2023/10/22 02:01:56;;;;;;;1.70;1.00;;;19.80;82.00;;;;;;4973049;28;20047;-26
2023/10/22 02:04:23;;;;;;;1.95;1.00;;;18.70;64.80;;;;;;4972805;28;20057;-27
2023/10/22 02:06:49;;;;;;;1.58;1.15;;;18.90;81.70;;;;;;4972644;28;20527;-27
2023/10/22 02:09:17;;;;;;;1.58;0.98;;;18.70;62.30;;;;;;4985683;28;20594;-26
2023/10/22 02:11:44;;;;;;;1.63;0.90;;;18.40;81.50;;;;;;4996400;28;20133;-26
2023/10/22 02:14:11;;;;;;;0.80;0.70;;;;;;;;;;4996231;28;20051;-29
2023/10/22 02:16:39;;;;;;;2.15;1.00;;;19.00;81.90;;;;;;4996116;28;20085;-27
2023/10/22 02:19:06;;;;;;;1.70;1.00;;;18.80;81.40;;;;;;4996157;28;20064;-27
2023/10/22 02:21:35;;;;;;;1.63;1.00;;;;;;;;;;4996417;28;20054;-27
2023/10/22 02:24:01;;;;;;;1.25;0.85;;;18.90;80.00;;;;;;4995938;28;20042;-27
2023/10/22 02:26:28;;;;;;;1.77;1.20;;;18.90;81.90;;;;;;4996167;28;20054;-26
2023/10/22 02:28:55;;;;;;;3.97;1.20;;;;;;;;;;4995479;28;20112;-29
2023/10/22 02:31:22;;;;;;;1.63;0.90;;;18.30;81.20;;;;;;4996091;28;20078;-27
2023/10/22 02:33:50;;;;;;;1.55;0.90;;;18.40;81.30;;;;;;4996152;28;20146;-26
2023/10/22 02:36:17;;;;;;;0.85;0.80;;;19.00;64.60;;;;;;4988480;28;20047;-26
2023/10/22 02:38:44;;;;;;;1.52;0.90;;;18.80;71.00;;;;;;4976148;28;20106;-27
2023/10/22 02:41:10;;;;;;;1.65;0.80;;;18.70;81.80;;;;;;4976575;28;20090;-26
2023/10/22 02:43:37;;;;;;;1.40;0.85;;;18.40;79.80;;;;;;4976263;28;20101;-27
2023/10/22 02:46:04;;;;;;;1.38;0.90;;;17.60;70.40;;;;;;4976357;28;20070;-26
2023/10/22 02:48:32;;;;;;;1.88;1.00;;;19.40;82.20;;;;;;4975885;28;20488;-27
2023/10/22 02:51:03;;;;;;;1.02;0.70;;;18.40;79.90;;;;;;4976355;28;20055;-26
2023/10/22 02:53:29;;;;;;;1.63;0.90;;;18.60;81.80;;;;;;4974908;28;20544;-26
2023/10/22 02:56:00;;;;;;;2.30;0.80;;;18.30;72.10;;;;;;4976195;28;20389;-27
2023/10/22 02:58:28;;;;;;;1.17;0.80;;;18.20;81.30;;;;;;4975881;28;20050;-26
2023/10/22 03:00:56;;;;;;;1.98;0.90;;;18.70;81.90;;;;;;4976080;28;20058;-26
2023/10/22 03:03:23;;;;;;;1.10;0.90;;;17.80;71.50;;;;;;4975609;28;20514;-26
2023/10/22 03:05:50;;;;;;;1.73;0.95;;;18.30;81.50;;;;;;4976030;28;20107;-26
2023/10/22 03:08:18;;;;;;;0.77;0.65;;;18.30;71.90;;;;;;4979890;28;20054;-27
2023/10/22 03:10:45;;;;;;;1.90;0.90;;;18.80;81.20;;;;;;4995250;28;20046;-26
2023/10/22 03:13:12;;;;;;;1.48;0.80;;;19.70;82.10;;;;;;4995155;28;20082;-27
2023/10/22 03:15:39;;;;;;;2.63;0.90;;;;;;;;;;4995063;28;20046;-29
2023/10/22 03:18:07;;;;;;;2.10;0.98;;;19.60;68.00;;;;;;4995241;28;20050;-26
2023/10/22 03:20:34;;;;;;;1.65;0.80;;;17.90;81.60;;;;;;4994976;28;20117;-27
2023/10/22 03:23:03;;;;;;;1.27;0.73;;;;;;;;;;4995071;28;20050;-26
2023/10/22 03:25:31;;;;;;;1.45;0.93;;;18.60;81.60;;;;;;4994960;28;20093;-27
2023/10/22 03:27:58;;;;;;;1.38;0.90;;;18.40;81.70;;;;;;4994783;28;20488;-26
2023/10/22 03:30:25;;;;;;;1.27;0.68;;;18.60;77.50;;;;;;4994891;28;20050;-27
2023/10/22 03:32:54;;;;;;;1.40;0.80;;;17.90;65.00;;;;;;4985126;28;20574;-27
2023/10/22 03:35:21;;;;;;;1.17;0.80;;;;;;;;;;4975495;28;20082;-26
2023/10/22 03:37:48;;;;;;;1.05;0.80;;;17.90;81.20;;;;;;4974819;28;20054;-26
2023/10/22 03:40:15;;;;;;;2.15;1.00;;;18.90;82.10;;;;;;4975105;28;20074;-26
2023/10/22 03:42:43;;;;;;;1.23;0.93;;;17.60;64.00;;;;;;4975373;28;20050;-27
2023/10/22 03:45:10;;;;;;;1.35;0.93;;;18.20;68.80;;;;;;4975413;28;20125;-29
2023/10/22 03:47:37;;;;;;;1.52;0.80;;;18.30;81.90;;;;;;4975250;28;20512;-30
2023/10/22 03:50:04;;;;;;;0.98;0.80;;;19.60;63.30;;;;;;4974588;28;20389;-30
2023/10/22 03:52:31;;;;;;;1.77;0.80;;;18.80;81.60;;;;;;4975147;28;20051;-30
2023/10/22 03:54:58;;;;;;;0.93;0.70;;;;;;;;;;4974892;28;20042;-29
2023/10/22 03:57:25;;;;;;;1.45;0.73;;;;;;;;;;4975312;28;20485;-29
2023/10/22 03:59:53;;;;;;;2.55;0.70;;;18.50;62.50;;;;;;4974658;28;20090;-28
2023/10/22 04:02:20;;;;;;;1.92;0.70;;;;;;;;;;4975096;28;20074;-29
2023/10/22 04:04:47;;;;;;;1.70;0.80;;;19.70;82.40;;;;;;4974637;28;20050;-30
2023/10/22 04:07:14;;;;;;;1.00;0.77;;;;;;;;;;4974889;28;20114;-28
2023/10/22 04:09:41;;;;;;;0.85;0.55;;;18.90;77.60;;;;;;4990071;28;20156;-30
2023/10/22 04:12:08;;;;;;;0.85;0.75;;;;;;;;;;4994262;28;20129;-30
2023/10/22 04:14:35;;;;;;;0.77;0.70;;;18.50;81.70;;;;;;4993838;28;20061;-30
2023/10/22 04:17:04;;;;;;;1.50;0.77;;;17.80;81.30;;;;;;4994201;28;20105;-30
2023/10/22 04:19:31;;;;;;;1.73;0.65;;;;;;;;;;4993933;28;20100;-30
2023/10/22 04:21:58;;;;;;;1.10;0.70;;;;;;;;;;4993940;28;20569;-30
2023/10/22 04:24:25;;;;;;;2.40;0.75;;;17.80;64.30;;;;;;4993863;28;20097;-30
2023/10/22 04:26:51;;;;;;;0.98;0.68;;;19.60;82.40;;;;;;4994004;28;20097;-30
2023/10/22 04:29:18;;;;;;;1.25;0.70;;;19.60;82.50;;;;;;4982580;28;20082;-30
2023/10/22 04:31:45;;;;;;;1.23;0.70;;;18.30;69.70;;;;;;4973689;28;20089;-29
2023/10/22 04:34:13;;;;;;;1.30;0.70;;;17.70;81.40;;;;;;4974465;28;20416;-30
2023/10/22 04:36:40;;;;;;;0.95;0.80;;;18.20;66.80;;;;;;4973816;28;20038;-30
2023/10/22 04:39:07;;;;;;;1.95;0.70;;;;;;;;;;4974095;28;20097;-30
2023/10/22 04:41:34;;;;;;;1.70;0.80;;;19.50;82.40;;;;;;4974210;28;20393;-30
2023/10/22 04:44:01;;;;;;;1.17;0.70;;;18.90;82.50;;;;;;4974224;28;20082;-30
2023/10/22 04:46:28;;;;;;;2.08;0.80;;;18.40;82.10;;;;;;4974188;28;20559;-30
2023/10/22 04:48:55;;;;;;;1.02;0.80;;;18.70;82.50;;;;;;4973789;28;20560;-30
2023/10/22 04:51:24;;;;;;;0.90;0.73;;;18.20;66.00;;;;;;4974073;28;20057;-30
2023/10/22 04:53:50;;;;;;;2.00;0.82;;;18.90;82.50;;;;;;4973925;28;20141;-30
2023/10/22 04:56:17;;;;;;;0.68;0.60;;;18.00;82.00;;;;;;4974073;28;20081;-30
2023/10/22 04:58:44;;;;;;;0.65;0.57;;;;;;;;;;4973576;28;20082;-30
2023/10/22 05:01:11;;;;;;;1.05;0.60;;;18.90;82.10;;;;;;4973764;28;20507;-30
2023/10/22 05:03:38;;;;;;;1.13;0.70;;;;;;;;;;4973849;28;20101;-30
2023/10/22 05:06:06;;;;;;;2.10;0.63;;;17.90;82.00;;;;;;4973986;28;20101;-30
2023/10/22 05:08:35;;;;;;;1.98;0.80;;;18.10;81.70;;;;;;4979760;28;20050;-30
2023/10/22 05:11:05;;;;;;;2.03;0.70;;;;;;;;;;4993058;28;20046;-28
2023/10/22 05:13:32;;;;;;;2.22;0.70;;;;;;;;;;4992633;28;20518;-28
2023/10/22 05:15:59;;;;;;;1.58;0.90;;;17.90;81.90;;;;;;4993016;28;20046;-30
2023/10/22 05:18:26;;;;;;;0.80;0.60;;;;;;;;;;4992854;28;20073;-28
2023/10/22 05:20:53;;;;;;;0.85;0.80;;;19.30;79.60;;;;;;4993103;28;20047;-30
2023/10/22 05:23:20;;;;;;;1.65;0.80;;;18.50;82.40;;;;;;4992675;28;20047;-30
2023/10/22 05:25:48;;;;;;;1.08;0.80;;;17.80;81.60;;;;;;4979803;28;20050;-30
2023/10/22 05:28:15;;;;;;;0.65;0.55;;;;;;;;;;4973346;28;20047;-26
2023/10/22 05:30:43;;;;;;;0.60;0.57;;;;;;;;;;4973184;28;20084;-28
2023/10/22 05:33:10;;;;;;;0.93;0.60;;;;;;;;;;4973327;28;20070;-30
2023/10/22 05:35:37;;;;;;;0.60;0.60;;;;;;;;;;4973314;28;20051;-28
2023/10/22 05:38:04;;;;;;;1.27;0.77;;;18.60;82.10;;;;;;4973013;28;20050;-30
2023/10/22 05:40:36;;;;;;;0.63;0.63;;;18.40;62.90;;;;;;4973075;28;20047;-28
2023/10/22 05:43:04;;;;;;;1.30;0.80;;;18.20;78.20;;;;;;4973181;28;20077;-29
2023/10/22 05:45:32;;;;;;;0.70;0.60;;;;;;;;;;4972946;28;20051;-30
2023/10/22 05:47:58;;;;;;;0.70;0.60;;;18.70;82.30;;;;;;4973293;28;20109;-30
2023/10/22 05:50:26;;;;;;;2.22;0.70;;;;;;;;;;4972961;28;20043;-29
2023/10/22 05:52:53;;;;;;;1.35;0.77;;;19.00;82.90;;;;;;4972996;28;20062;-30
2023/10/22 05:55:19;;;;;;;1.42;0.60;;;18.40;72.10;;;;;;4973192;28;20077;-30
2023/10/22 05:57:47;;;;;;;2.33;0.80;;;18.60;82.70;;;;;;4972645;28;20090;-30
2023/10/22 06:00:15;;;;;;;0.75;0.60;;;18.50;63.00;;;;;;4972390;28;20047;-30
2023/10/22 06:02:43;;;;;;;0.50;0.50;;;18.40;65.60;;;;;;4972887;28;20051;-30
2023/10/22 06:05:12;;;;;;;0.93;0.63;;;18.00;81.10;;;;;;4972869;28;20061;-30
2023/10/22 06:07:39;;;;;;;1.15;0.70;;;18.50;82.30;;;;;;4973133;28;20077;-30
2023/10/22 06:10:06;;;;;;;0.93;0.70;;;18.40;63.00;;;;;;4991174;28;20054;-29
2023/10/22 06:12:33;;;;;;;1.23;0.70;;;18.40;82.20;;;;;;4992389;28;20081;-30
2023/10/22 06:15:03;;;;;;;0.55;0.50;;;;;;;;;;4990972;28;20050;-30
2023/10/22 06:17:31;;;;;;;0.70;0.50;;;18.40;63.00;;;;;;4992463;28;20517;-28
2023/10/22 06:19:59;;;;;;;0.77;0.60;;;18.90;66.70;;;;;;4991971;28;20062;-30
2023/10/22 06:22:26;;;;;;;0.60;0.52;;;;;;;;;;4976051;28;20483;-28
2023/10/22 06:24:53;;;;;;;0.50;0.50;;;18.40;82.50;;;;;;4972526;28;20510;-30
2023/10/22 06:27:23;;;;;;;0.45;0.35;;;18.50;82.20;;;;;;4973012;28;20050;-30
2023/10/22 06:29:53;;;;;;;0.60;0.60;;;18.20;82.10;;;;;;4972491;28;20106;-30
2023/10/22 06:32:19;;;;;;;1.40;0.70;;;18.70;82.30;;;;;;4972931;28;20058;-30
2023/10/22 06:34:47;;;;;;;1.00;0.60;;;18.50;63.00;;;;;;4972548;28;20051;-28
2023/10/22 06:37:15;;;;;;;0.73;0.52;;;;;;;;;;4972138;28;20097;-29
2023/10/22 06:39:41;;;;;;;0.82;0.60;;;19.30;82.80;;;;;;4972169;28;20559;-30
2023/10/22 06:42:08;;;;;;;1.17;0.60;;;18.60;82.50;;;;;;4972218;28;20090;-30
2023/10/22 06:44:36;;;;;;;0.90;0.60;;;18.50;70.30;;;;;;4972610;28;20070;-30
2023/10/22 06:47:03;;;;;;;0.40;0.40;;;17.50;81.90;;;;;;4972360;28;20063;-30
2023/10/22 06:49:31;;;;;;;1.58;0.70;;;;;;;;;;4972431;28;20082;-30
2023/10/22 06:51:59;;;;;;;0.45;0.45;;;18.70;63.00;;;;;;4972355;28;20086;-30
2023/10/22 06:54:26;;;;;;;1.45;0.52;;;18.10;81.80;;;;;;4971252;28;20050;-30
2023/10/22 06:56:52;;;;;;;0.70;0.60;;;18.90;66.30;;;;;;4975828;28;20129;-30
2023/10/22 06:59:19;;;;;;;0.55;0.52;;;;;;;;;;4975774;28;20078;-29
2023/10/22 07:01:46;;;;;;;0.93;0.50;;;19.40;82.70;;;;;;4976131;28;20086;-30
2023/10/22 07:04:13;;;;;;;1.02;0.40;;;;;;;;;;4974942;28;20090;-30
2023/10/22 07:06:40;;;;;;;0.40;0.40;;;18.80;81.50;;;;;;4976105;28;20054;-30
2023/10/22 07:09:09;;;;;;;0.47;0.45;;;17.90;81.00;;;;;;4986559;28;20042;-30
2023/10/22 07:11:37;;;;;;;0.40;0.40;;;;;;;;;;4995530;28;20046;-29
2023/10/22 07:14:04;;;;;;;0.57;0.57;;;;;;;;;;4995318;28;20058;-29
2023/10/22 07:16:31;;;;;;;0.77;0.60;;;19.50;81.90;;;;;;4989558;28;20126;-27
2023/10/22 07:18:58;;;;;;;0.95;0.55;;;;;;;;;;4975207;28;20105;-27
2023/10/22 07:21:25;;;;;;;0.95;0.40;;;19.50;78.90;;;;;;4975876;28;20459;-27
2023/10/22 07:23:51;;;;;;;2.13;0.52;;;19.90;81.20;;;;;;4975747;28;20491;-27
2023/10/22 07:26:20;;;;;;;0.75;0.50;;;19.60;76.20;;;;;;4975636;28;20468;-27
2023/10/22 07:28:48;;;;;;;0.35;0.35;;;18.60;76.20;;;;;;4975483;28;20051;-27
2023/10/22 07:31:17;;;;;;;0.52;0.45;;;20.90;81.50;;;;;;4975288;28;20043;-27
2023/10/22 07:33:44;;;;;;;0.50;0.50;;;;;;;;;;4975245;28;20117;-27
2023/10/22 07:36:11;;;;;;;2.45;0.70;;;19.90;80.30;;;;;;4975300;28;20059;-27
2023/10/22 07:38:40;;;;;;;1.45;0.55;;;21.10;80.90;;;;;;4974679;28;20102;-27
2023/10/22 07:41:11;;;;;;;0.45;0.45;;;19.70;80.30;;;;;;4975545;28;20054;-27
2023/10/22 07:43:39;;;;;;;0.30;0.30;;;20.40;80.20;;;;;;4975099;28;20134;-27
2023/10/22 07:46:06;;;;;;;0.70;0.50;;;21.60;80.70;;;;;;4975419;28;20129;-27
2023/10/22 07:48:33;;;;;;;0.88;0.63;;;;;;;;;;4975171;28;20113;-29
2023/10/22 07:51:09;;;;;;;0.63;0.63;;;20.40;79.70;;;;;;4975241;28;20109;-26
2023/10/22 07:53:36;;;;;;;1.50;0.63;;;20.70;80.00;;;;;;4975376;28;20061;-27
2023/10/22 07:56:03;;;;;;;0.50;0.50;;;;;;;;;;4975003;28;20074;-29
2023/10/22 07:58:30;;;;;;;1.52;0.60;;;21.40;80.20;;;;;;4975821;28;20070;-27
2023/10/22 08:00:58;;;;;;;1.30;0.50;;;20.20;79.50;;;;;;4975963;28;20074;-27
2023/10/22 08:03:25;;;;;;;1.05;0.57;;;;;;;;;;4975076;28;20112;-29
2023/10/22 08:05:52;;;;;;;1.27;0.63;;;20.70;78.90;;;;;;4975742;28;20102;-27
2023/10/22 08:08:19;;;;;;;1.67;0.70;;;;;;;;;;4976935;28;20046;-29
2023/10/22 08:10:46;;;;;;;1.35;0.60;;;;;;;;;;4974283;28;20097;-27
2023/10/22 08:13:14;;;;;;;1.00;0.70;;;;;;;;;;4972925;28;20129;-27
2023/10/22 08:15:40;;;;;;;0.75;0.60;;;21.20;79.50;;;;;;4974497;28;20046;-27
2023/10/22 08:18:09;;;;;;;3.03;0.80;;;20.80;78.90;;;;;;4973393;28;20090;-27
2023/10/22 08:20:36;;;;;;;0.85;0.60;;;;;;;;;;4977090;28;20057;-29
2023/10/22 08:23:02;;;;;;;1.33;0.70;;;21.10;79.30;;;;;;4973708;28;20053;-27
2023/10/22 08:25:30;;;;;;;0.82;0.60;;;;;;;;;;4973745;28;20066;-27
2023/10/22 08:27:56;;;;;;;0.80;0.80;;;21.20;79.10;;;;;;4973935;28;20105;-27
2023/10/22 08:30:24;;;;;;;1.02;0.65;;;21.90;78.50;;;;;;4973382;28;20512;-27
2023/10/22 08:32:51;;;;;;;2.08;0.80;;;21.10;60.40;;;;;;4973549;28;20050;-26
2023/10/22 08:35:20;;;;;;;1.15;0.70;;;21.10;64.00;;;;;;4973943;28;20093;-27
2023/10/22 08:37:45;;;;;;;0.57;0.55;;;21.80;74.50;;;;;;4973374;28;20407;-27
2023/10/22 08:40:12;;;;;;;0.85;0.73;;;18.70;58.80;;;;;;4973206;28;20101;-29
2023/10/22 08:42:39;;;;;;;0.88;0.68;;;21.20;78.50;;;;;;4974316;28;20082;-27
2023/10/22 08:45:07;;;;;;;1.25;0.70;;;21.40;60.20;;;;;;4986610;28;20078;-30
2023/10/22 08:47:35;;;;;;;3.17;0.60;;;21.40;60.10;;;;;;4982540;28;20047;-29
2023/10/22 08:50:02;;;;;;;1.33;0.70;;;20.60;78.00;;;;;;4974422;28;20078;-27
2023/10/22 08:52:30;;;;;;;1.08;0.70;;;22.60;78.90;;;;;;4973832;28;20094;-27
2023/10/22 08:54:57;;;;;;;1.67;0.60;;;21.40;71.20;;;;;;4972754;28;20078;-27
2023/10/22 08:57:24;;;;;;;0.60;0.60;;;22.90;78.40;;;;;;4971512;28;20054;-27
2023/10/22 08:59:51;;;;;;;1.17;0.80;;;21.60;77.80;;;;;;4977583;28;20135;-27
2023/10/22 09:02:21;;;;;;;1.00;0.70;;;;;;;;;;4973656;28;20531;-27
2023/10/22 09:04:48;;;;;;;1.45;0.77;;;21.70;78.00;;;;;;4974896;28;20046;-27
2023/10/22 09:07:15;;;;;;;1.20;0.70;;;;;;;;;;4975578;28;20093;-27
2023/10/22 09:09:43;;;;;;;1.55;0.80;;;22.60;78.20;;;;;;4974060;28;20117;-27
2023/10/22 09:12:10;;;;;;;1.35;0.80;;;;;;;;;;4975327;28;20051;-27
2023/10/22 09:14:37;;;;;;;1.25;0.60;;;;;;;;;;4973149;28;20138;-29
2023/10/22 09:17:15;;;;;;;2.67;0.70;;;22.00;77.80;;;;;;4974688;28;20082;-27
2023/10/22 09:19:47;;;;;;;1.65;0.80;;;21.70;77.60;;;;;;4972561;28;20051;-27
2023/10/22 09:22:21;;;;;;;1.55;1.33;;;21.00;59.50;;;;;;4973039;28;20144;-27
2023/10/22 09:24:50;;;;;;;0.63;0.63;;;21.90;59.50;;;;;;4972133;28;20051;-27
2023/10/22 09:27:23;;;;;;;0.80;0.60;;;21.90;59.50;;;;;;4972804;28;20116;-28
2023/10/22 09:29:50;;;;;;;1.98;1.15;;;22.00;77.60;;;;;;4971274;28;20043;-28
2023/10/22 09:32:17;;;;;;;2.10;0.70;;;23.00;77.80;;;;;;4972773;28;20093;-27
2023/10/22 09:34:44;;;;;;;1.02;0.70;;;;;;;;;;4970356;28;20046;-27
2023/10/22 09:37:11;;;;;;;1.10;0.70;;;21.50;77.20;;;;;;4972290;28;20097;-27
2023/10/22 09:39:38;;;;;;;0.88;0.60;;;21.90;59.60;;;;;;4972878;28;20043;-29
2023/10/22 09:42:07;;;;;;;0.80;0.68;;;22.00;59.70;;;;;;4970214;28;20050;-27
2023/10/22 09:44:34;;;;;;;0.93;0.77;;;21.90;77.70;;;;;;4972413;28;20058;-27
2023/10/22 09:47:02;;;;;;;2.00;0.60;;;21.40;77.30;;;;;;4972666;28;20078;-27
2023/10/22 09:49:29;;;;;;;2.28;0.80;;;;;;;;;;4971939;28;20055;-27
2023/10/22 09:51:58;;;;;;;0.80;0.73;;;22.90;60.20;;;;;;4970978;28;20476;-28
2023/10/22 09:54:24;;;;;;;1.30;0.80;;;21.30;62.90;;;;;;4969151;28;20105;-27
2023/10/22 09:56:52;;;;;;;2.08;0.80;;;;;;;;;;4972536;28;20047;-28
2023/10/22 09:59:22;;;;;;;1.38;0.82;;;21.70;59.70;;;;;;4972185;28;20585;-29
2023/10/22 10:01:49;;;;;;;1.17;0.70;;;;;;;;;;4974733;28;20404;-27
2023/10/22 10:04:17;;;;;;;1.77;0.80;;;21.20;77.60;;;;;;4972136;28;20050;-27
2023/10/22 10:06:44;;;;;;;1.23;0.80;;;21.10;77.30;;;;;;4974653;28;20059;-27
2023/10/22 10:09:10;;;;;;;1.02;0.60;;;21.40;77.80;;;;;;4972570;28;20054;-27
2023/10/22 10:11:37;;;;;;;0.60;0.60;;;22.40;73.20;;;;;;4972945;28;20051;-27
2023/10/22 10:14:12;;;;;;;1.20;0.63;;;21.50;59.90;;;;;;4972374;28;20083;-27
2023/10/22 10:16:43;;;;;;;2.95;0.80;;;21.70;77.80;;;;;;4973205;28;20055;-27
2023/10/22 10:19:10;;;;;;;1.50;0.88;;;21.10;77.90;;;;;;4971920;28;20124;-27
2023/10/22 10:21:39;;;;;;;1.30;0.65;;;21.40;77.90;;;;;;4973080;28;20385;-27
2023/10/22 10:24:23;;;;;;;1.50;0.80;;;21.40;60.10;;;;;;4972471;28;20133;-27
2023/10/22 10:26:51;;;;;;;1.45;0.80;;;21.50;78.30;;;;;;4973036;28;20058;-27
2023/10/22 10:29:18;;;;;;;1.88;0.90;;;;;;;;;;4970794;28;20050;-29
2023/10/22 10:31:48;;;;;;;2.70;0.90;;;21.30;60.20;;;;;;4974758;28;20055;-28
2023/10/22 10:34:22;;;;;;;1.92;0.85;;;22.00;78.90;;;;;;4975659;28;20527;-27
2023/10/22 10:36:49;;;;;;;2.88;1.00;;;21.00;78.30;;;;;;4975593;28;20057;-27
2023/10/22 10:39:38;;;;;;;2.75;0.85;;;20.90;74.80;;;;;;4975904;28;20097;-28
2023/10/22 10:42:05;;;;;;;1.38;0.80;;;21.50;78.80;;;;;;4976522;28;20385;-27
2023/10/22 10:44:32;;;;;;;2.05;0.90;;;21.90;69.10;;;;;;4976012;28;20094;-27
2023/10/22 10:47:34;;;;;;;0.70;0.57;;;22.30;79.00;;;;;;4975935;28;20090;-27
2023/10/22 10:50:03;;;;;;;1.63;0.77;;;21.10;78.40;;;;;;4976167;28;20043;-28
2023/10/22 10:52:31;;;;;;;1.13;0.70;;;21.20;61.10;;;;;;4975882;28;20042;-28
2023/10/22 10:55:01;;;;;;;1.80;0.70;;;21.00;60.30;;;;;;4975715;28;20046;-29
2023/10/22 10:57:35;;;;;;;1.30;0.70;;;20.90;62.20;;;;;;4975461;28;20086;-28
2023/10/22 11:00:03;;;;;;;1.08;0.95;;;18.70;59.10;;;;;;4975964;28;20468;-27
2023/10/22 11:02:31;;;;;;;1.55;0.80;;;;;;;;;;4975934;28;20058;-28
2023/10/22 11:04:59;;;;;;;2.17;0.93;;;20.50;78.50;;;;;;4976027;28;20057;-27
2023/10/22 11:07:26;;;;;;;1.42;0.90;;;;;;;;;;4976323;28;20047;-28
2023/10/22 11:09:53;;;;;;;2.40;0.70;;;19.80;78.10;;;;;;4974778;28;20078;-27
2023/10/22 11:12:21;;;;;;;0.90;0.75;;;20.50;78.30;;;;;;4974834;28;20447;-27
2023/10/22 11:14:53;;;;;;;1.55;0.70;;;20.60;78.50;;;;;;4975741;28;20050;-27
2023/10/22 11:17:20;;;;;;;1.17;0.77;;;21.70;78.90;;;;;;4975682;28;20152;-27
2023/10/22 11:19:50;;;;;;;1.83;0.65;;;19.60;75.70;;;;;;4975701;28;20101;-27
2023/10/22 11:22:18;;;;;;;1.58;0.70;;;21.90;61.10;;;;;;4975126;28;20055;-28
2023/10/22 11:24:45;;;;;;;1.73;1.02;;;;;;;;;;4975611;28;20582;-28
2023/10/22 11:27:12;;;;;;;1.25;0.70;;;20.20;78.50;;;;;;4975671;28;20073;-27
2023/10/22 11:29:42;;;;;;;0.77;0.65;;;20.60;60.60;;;;;;4974763;28;20054;-29
2023/10/22 11:32:11;;;;;;;3.30;0.80;;;20.10;61.40;;;;;;4974988;28;20109;-28
2023/10/22 11:34:46;;;;;;;3.80;0.90;;;20.50;78.90;;;;;;4973777;28;20463;-27
2023/10/22 11:37:13;;;;;;;1.13;0.60;;;;;;;;;;4973249;28;20097;-29
2023/10/22 11:39:42;;;;;;;2.90;0.75;;;21.60;73.90;;;;;;4973191;28;20082;-27
2023/10/22 11:42:10;;;;;;;2.35;0.80;;;;;;;;;;4973555;28;20054;-27
2023/10/22 11:44:39;;;;;;;0.70;0.70;;;20.50;75.80;;;;;;4972798;28;20059;-27
2023/10/22 11:47:24;;;;;;;1.60;0.93;;;20.50;60.90;;;;;;4973815;28;20527;-29
2023/10/22 11:49:51;;;;;;;1.35;0.80;;;20.50;79.50;;;;;;4975087;28;20146;-27
2023/10/22 11:52:19;;;;;;;2.65;0.88;;;20.50;60.90;;;;;;4973298;28;20496;-28
2023/10/22 11:54:48;;;;;;;2.72;1.20;;;20.50;61.10;;;;;;4974988;28;20066;-29
2023/10/22 11:57:14;;;;;;;2.33;0.80;;;20.40;77.10;;;;;;4975092;28;20051;-27
2023/10/22 11:59:41;;;;;;;1.23;0.85;;;20.30;68.10;;;;;;4974552;28;20055;-28
2023/10/22 12:02:08;;;;;;;1.27;0.98;;;;;;;;;;4974711;28;20063;-29
2023/10/22 12:04:35;;;;;;;3.42;0.98;;;;;;;;;;4975093;28;20057;-27
2023/10/22 12:07:03;;;;;;;2.33;0.80;;;;;;;;;;4973667;28;20152;-29
2023/10/22 12:09:29;;;;;;;1.85;0.80;;;20.40;79.60;;;;;;4988245;28;20109;-27
2023/10/22 12:11:57;;;;;;;3.15;1.20;;;20.40;61.30;;;;;;4992561;28;20055;-30
2023/10/22 12:14:25;;;;;;;2.45;1.13;;;;;;;;;;4991845;28;20077;-31
2023/10/22 12:16:52;;;;;;;7.10;1.10;;;;;;;;;;4984237;28;20043;-27
2023/10/22 12:19:19;;;;;;;2.40;1.10;;;;;;;;;;4971519;28;20121;-29
2023/10/22 12:21:46;;;;;;;2.33;1.10;;;;;;;;;;4972031;28;20050;-28
2023/10/22 12:24:13;;;;;;;1.95;1.00;;;;;;;;;;4970145;28;20054;-29
2023/10/22 12:26:40;;;;;;;2.45;1.30;;;19.60;79.10;;;;;;4972397;28;20668;-27
2023/10/22 12:29:08;;;;;;;2.47;1.10;;;20.30;74.90;;;;;;4972012;28;20626;-27
2023/10/22 12:31:35;;;;;;;2.47;1.10;;;;;;;;;;4972244;28;20102;-29
2023/10/22 12:34:03;;;;;;;3.13;1.30;;;20.60;80.00;;;;;;4972291;28;20094;-29
2023/10/22 12:36:30;;;;;;;1.88;0.95;;;21.20;69.20;;;;;;4971413;28;20050;-29
2023/10/22 12:38:58;;;;;;;2.40;1.10;;;;;;;;;;4972523;28;20055;-28
2023/10/22 12:41:24;;;;;;;4.05;1.40;;;19.70;79.70;;;;;;4972653;28;20054;-30
2023/10/22 12:43:52;;;;;;;3.30;1.10;;;;;;;;;;4972331;28;20106;-28
2023/10/22 12:46:20;;;;;;;4.10;1.38;;;20.00;79.90;;;;;;4972120;28;20051;-29
2023/10/22 12:48:46;;;;;;;3.13;1.05;;;19.90;79.90;;;;;;4972538;28;20058;-29
2023/10/22 12:51:13;;;;;;;2.42;1.52;;;20.00;69.00;;;;;;4972424;28;20121;-29
2023/10/22 12:53:40;;;;;;;4.13;1.10;;;19.10;72.70;;;;;;4971621;28;20047;-29
2023/10/22 12:56:07;;;;;;;4.00;1.35;;;;;;;;;;4972166;28;20054;-29
2023/10/22 12:58:35;;;;;;;3.08;1.10;;;;;;;;;;4971830;28;20054;-27
2023/10/22 13:01:04;;;;;;;2.70;1.13;;;20.10;61.60;;;;;;4972157;28;20057;-29
2023/10/22 13:03:32;;;;;;;2.85;1.10;;;20.10;80.20;;;;;;4972419;28;20051;-27
2023/10/22 13:06:02;;;;;;;3.25;1.20;;;21.10;80.40;;;;;;4972289;28;20043;-27
2023/10/22 13:08:29;;;;;;;3.63;1.20;;;19.80;80.00;;;;;;4977935;28;20514;-27
2023/10/22 13:10:57;;;;;;;2.10;1.02;;;;;;;;;;4991338;28;20050;-28
2023/10/22 13:13:24;;;;;;;4.13;1.30;;;20.20;80.30;;;;;;4956147;28;1057667;-27
2023/10/22 13:15:51;;;;;;;2.28;1.10;;;;;;;;;;4972138;28;20389;-27